Time;durP1;ratioP1;P1;durP2;ratioP2;P2;SDS_P1;SDS_P2;PMS_P1;PMS_P2;Temp;Humidity;BMP_temperature;BMP_pressure;BME280_temperature;BME280_humidity;BME280_pressure;Samples;Min_cycle;Max_cycle;Signal;HPM_P1;HPM_P2
2022/01/27 00:00:49;;;;;;;29.45;2.88;;;;;;;;;;5007655;28;20039;-34
2022/01/27 00:11:11;;;;;;;20.38;2.80;;;;;;;;;;5009757;28;20067;-33
2022/01/27 00:13:48;;;;;;;28.02;3.20;;;;;;;;;;5005532;28;20034;-35
2022/01/27 00:16:20;;;;;;;29.88;3.15;;;;;;;;;;5004062;28;20058;-33
2022/01/27 00:18:49;;;;;;;27.30;3.08;;;;;;;;;;5003204;28;20109;-34
2022/01/27 00:21:19;;;;;;;30.40;3.22;;;;;;;;;;5009528;28;20504;-34
2022/01/27 00:23:46;;;;;;;35.88;3.25;;;;;;;;;;5003505;28;20034;-33
2022/01/27 00:26:15;;;;;;;44.47;3.90;;;;;;;;;;5002074;28;20156;-34
2022/01/27 00:28:42;;;;;;;37.05;3.80;;;;;;;;;;5011961;28;20112;-33
2022/01/27 00:31:10;;;;;;;34.45;3.22;;;;;;;;;;5011845;28;20389;-34
2022/01/27 00:33:40;;;;;;;32.92;2.85;;;;;;;;;;5012199;28;20470;-33
2022/01/27 00:36:07;;;;;;;17.63;2.55;;;;;;;;;;5011632;28;20045;-34
2022/01/27 00:38:34;;;;;;;35.50;4.07;;;;;;;;;;5011903;28;20112;-33
2022/01/27 00:41:02;;;;;;;29.63;2.70;;;;;;;;;;5003259;28;20026;-33
2022/01/27 00:43:29;;;;;;;34.67;3.30;;;;;;;;;;4974383;28;20416;-34
2022/01/27 00:45:56;;;;;;;25.77;3.20;;;;;;;;;;4991895;28;20058;-33
2022/01/27 00:48:23;;;;;;;18.40;2.72;;;;;;;;;;4992404;28;20023;-33
2022/01/27 00:51:01;;;;;;;22.40;2.78;;;;;;;;;;4992391;28;20491;-34
2022/01/27 00:56:23;;;;;;;26.38;2.60;;;;;;;;;;4995904;28;20045;-34
2022/01/27 01:01:21;;;;;;;17.10;2.67;;;;;;;;;;5011456;28;20117;-34
2022/01/27 01:03:51;;;;;;;21.15;2.88;;;;;;;;;;5011780;28;20069;-34
2022/01/27 01:17:00;;;;;;;25.13;2.67;;;;;;;;;;5004292;28;20061;-34
2022/01/27 01:33:56;;;;;;;21.70;2.33;;;;;;;;;;5010181;28;20144;-33
2022/01/27 01:36:45;;;;;;;18.98;2.35;;;;;;;;;;5010496;28;20042;-33
2022/01/27 01:39:12;;;;;;;20.67;2.47;;;;;;;;;;5005613;28;20038;-33
2022/01/27 01:41:40;;;;;;;13.45;2.33;;;;;;;;;;5011353;28;20045;-34
2022/01/27 01:44:07;;;;;;;25.42;2.78;;;;;;;;;;5010116;28;20038;-33
2022/01/27 01:46:35;;;;;;;27.13;2.78;;;;;;;;;;4981785;28;20092;-34
2022/01/27 01:49:02;;;;;;;20.25;2.40;;;;;;;;;;5005187;28;20033;-33
2022/01/27 01:51:30;;;;;;;18.17;2.28;;;;;;;;;;5002680;28;20456;-33
2022/01/27 01:53:57;;;;;;;16.60;2.10;;;;;;;;;;5001061;28;20029;-34
2022/01/27 01:56:24;;;;;;;16.67;1.65;;;;;;;;;;5002186;28;20038;-34
2022/01/27 01:58:51;;;;;;;14.57;1.83;;;;;;;;;;5011273;28;20037;-34
2022/01/27 02:01:19;;;;;;;8.23;1.50;;;;;;;;;;5005585;28;20092;-34
2022/01/27 02:03:47;;;;;;;12.88;1.60;;;;;;;;;;5002127;28;20034;-34
2022/01/27 02:06:23;;;;;;;32.38;2.70;;;;;;;;;;5004283;28;20045;-34
2022/01/27 02:19:39;;;;;;;8.48;1.70;;;;;;;;;;5007095;28;20037;-34
2022/01/27 02:22:06;;;;;;;17.65;1.73;;;;;;;;;;5003736;28;20572;-35
2022/01/27 02:24:34;;;;;;;10.98;1.52;;;;;;;;;;5000589;28;20030;-34
2022/01/27 02:27:01;;;;;;;16.13;1.98;;;;;;;;;;5004890;28;20026;-35
2022/01/27 02:29:29;;;;;;;17.73;1.67;;;;;;;;;;5004135;28;20022;-34
2022/01/27 02:31:56;;;;;;;11.45;1.35;;;;;;;;;;5004160;28;20049;-34
2022/01/27 02:34:24;;;;;;;7.18;1.35;;;;;;;;;;4988271;28;20437;-35
2022/01/27 02:36:51;;;;;;;14.05;1.90;;;;;;;;;;5006079;28;20030;-38
2022/01/27 02:39:19;;;;;;;12.43;1.98;;;;;;;;;;5006909;28;20392;-35
2022/01/27 02:41:46;;;;;;;20.02;2.58;;;;;;;;;;5009169;28;20033;-34
2022/01/27 02:44:22;;;;;;;16.65;2.03;;;;;;;;;;4991268;28;20125;-34
2022/01/27 02:46:51;;;;;;;13.95;1.58;;;;;;;;;;5004436;28;20430;-35
2022/01/27 02:49:19;;;;;;;18.58;1.80;;;;;;;;;;5005802;28;20034;-36
2022/01/27 02:51:46;;;;;;;12.02;1.50;;;;;;;;;;4988192;28;20033;-36
2022/01/27 02:54:13;;;;;;;13.55;1.80;;;;;;;;;;5002050;28;20029;-37
2022/01/27 02:56:45;;;;;;;13.77;1.65;;;;;;;;;;5002677;28;20026;-35
2022/01/27 02:59:12;;;;;;;11.82;1.38;;;;;;;;;;5000645;28;20049;-34
2022/01/27 03:01:39;;;;;;;7.28;1.25;;;;;;;;;;5004983;28;20384;-37
2022/01/27 03:04:06;;;;;;;11.38;1.40;;;;;;;;;;5002249;28;20037;-33
2022/01/27 03:06:33;;;;;;;15.60;1.27;;;;;;;;;;4988308;28;20026;-34
2022/01/27 03:09:00;;;;;;;10.18;1.10;;;;;;;;;;5007888;28;20077;-34
2022/01/27 03:11:35;;;;;;;14.48;1.38;;;;;;;;;;5001986;28;20397;-33
2022/01/27 03:14:02;;;;;;;12.38;1.45;;;;;;;;;;4998567;28;20780;-34
2022/01/27 03:16:30;;;;;;;19.48;1.98;;;;;;;;;;5001943;28;20046;-33
2022/01/27 03:18:57;;;;;;;11.07;1.63;;;;;;;;;;5009263;28;20023;-33
2022/01/27 03:21:24;;;;;;;17.70;1.45;;;;;;;;;;5004759;28;20032;-33
2022/01/27 03:23:51;;;;;;;10.93;1.80;;;;;;;;;;5005950;28;20038;-33
2022/01/27 03:26:18;;;;;;;12.80;1.30;;;;;;;;;;5005479;28;20049;-33
2022/01/27 03:28:46;;;;;;;11.05;1.50;;;;;;;;;;5010357;28;20089;-33
2022/01/27 03:31:14;;;;;;;13.70;1.55;;;;;;;;;;5003784;28;20396;-33
2022/01/27 03:33:41;;;;;;;10.05;1.30;;;;;;;;;;5003960;28;22183;-34
2022/01/27 03:36:09;;;;;;;8.57;1.52;;;;;;;;;;5003564;28;20022;-34
2022/01/27 03:38:36;;;;;;;7.43;1.30;;;;;;;;;;5005206;28;20449;-33
2022/01/27 03:41:06;;;;;;;9.50;1.50;;;;;;;;;;5007211;28;20025;-34
2022/01/27 03:43:34;;;;;;;13.30;1.63;;;;;;;;;;5009371;28;20040;-34
2022/01/27 03:46:01;;;;;;;7.85;1.10;;;;;;;;;;5009142;28;20111;-37
2022/01/27 03:48:28;;;;;;;6.38;1.48;;;;;;;;;;5007453;28;20852;-35
2022/01/27 03:50:56;;;;;;;15.63;1.45;;;;;;;;;;5007681;28;20030;-35
2022/01/27 03:53:23;;;;;;;7.28;1.38;;;;;;;;;;5009329;28;20566;-36
2022/01/27 03:55:50;;;;;;;7.20;1.15;;;;;;;;;;5001361;28;20054;-34
2022/01/27 03:58:17;;;;;;;13.20;1.60;;;;;;;;;;5000834;28;20036;-35
2022/01/27 04:00:44;;;;;;;13.40;1.45;;;;;;;;;;5002981;28;20113;-35
2022/01/27 04:03:14;;;;;;;12.57;1.30;;;;;;;;;;5001733;28;20085;-36
2022/01/27 04:05:48;;;;;;;13.93;1.73;;;;;;;;;;5003356;28;20554;-34
2022/01/27 04:08:15;;;;;;;10.18;1.65;;;;;;;;;;5001820;28;20034;-34
2022/01/27 04:10:42;;;;;;;15.63;1.95;;;;;;;;;;5003142;28;20026;-37
2022/01/27 04:13:09;;;;;;;9.23;1.52;;;;;;;;;;5003592;28;20068;-35
2022/01/27 04:15:39;;;;;;;10.82;1.50;;;;;;;;;;5003691;28;20052;-36
2022/01/27 04:18:07;;;;;;;9.45;1.23;;;;;;;;;;5003735;28;20034;-35
2022/01/27 04:20:34;;;;;;;7.20;1.33;;;;;;;;;;5002794;28;20064;-36
2022/01/27 04:23:01;;;;;;;11.00;1.55;;;;;;;;;;5010837;28;20076;-35
2022/01/27 04:25:28;;;;;;;12.55;1.42;;;;;;;;;;5013069;28;20439;-35
2022/01/27 04:28:00;;;;;;;14.43;1.38;;;;;;;;;;5013049;28;20080;-35
2022/01/27 04:30:27;;;;;;;5.22;1.02;;;;;;;;;;5013039;28;20385;-35
2022/01/27 04:33:00;;;;;;;11.60;1.20;;;;;;;;;;5012817;28;20073;-36
2022/01/27 04:35:31;;;;;;;8.63;1.20;;;;;;;;;;5012900;28;20045;-36
2022/01/27 04:38:11;;;;;;;9.30;1.30;;;;;;;;;;5012934;28;20037;-35
2022/01/27 04:40:47;;;;;;;15.18;1.65;;;;;;;;;;5012881;28;20038;-35
2022/01/27 04:48:33;;;;;;;8.15;1.23;;;;;;;;;;5012786;28;20041;-35
2022/01/27 04:51:06;;;;;;;;;;;;;;;;;;5013021;28;20033;-34
2022/01/27 04:53:38;;;;;;;8.65;1.55;;;;;;;;;;5012500;28;20334;-36
2022/01/27 04:56:07;;;;;;;;;;;;;;;;;;5012989;28;20038;-36
2022/01/27 04:58:35;;;;;;;6.68;1.20;;;;;;;;;;5012542;28;19916;-34
2022/01/27 05:01:03;;;;;;;8.65;1.10;;;;;;;;;;5012501;28;20492;-35
2022/01/27 05:03:58;;;;;;;5.57;1.10;;;;;;;;;;5012378;28;20080;-34
2022/01/27 05:06:18;;;;;;;9.10;1.30;;;;;;;;;;5011763;28;20046;-35
2022/01/27 05:08:45;;;;;;;6.32;1.40;;;;;;;;;;5012443;28;20026;-34
2022/01/27 05:11:25;;;;;;;6.78;1.20;;;;;;;;;;5012399;28;20030;-36
2022/01/27 05:13:57;;;;;;;6.63;0.95;;;;;;;;;;5012254;28;20111;-35
2022/01/27 05:16:27;;;;;;;8.02;0.88;;;;;;;;;;5012105;28;20058;-34
2022/01/27 05:18:54;;;;;;;6.65;1.08;;;;;;;;;;5012161;28;20057;-36
2022/01/27 05:21:21;;;;;;;6.55;1.00;;;;;;;;;;5012096;28;20034;-36
2022/01/27 05:23:48;;;;;;;8.90;1.20;;;;;;;;;;5012167;28;20090;-35
2022/01/27 05:26:16;;;;;;;8.90;1.40;;;;;;;;;;5012116;28;20105;-33
2022/01/27 05:28:43;;;;;;;7.40;1.40;;;;;;;;;;5012229;28;20034;-35
2022/01/27 05:31:10;;;;;;;4.63;1.10;;;;;;;;;;5011430;28;20107;-36
2022/01/27 05:33:37;;;;;;;6.25;1.10;;;;;;;;;;5011607;28;20399;-35
2022/01/27 05:36:04;;;;;;;6.75;1.48;;;;;;;;;;5012078;28;20036;-35
2022/01/27 05:38:31;;;;;;;6.72;1.10;;;;;;;;;;5012092;28;20084;-35
2022/01/27 05:40:58;;;;;;;6.60;1.30;;;;;;;;;;5012053;28;20442;-35
2022/01/27 05:43:25;;;;;;;7.43;1.23;;;;;;;;;;5011876;28;20037;-36
2022/01/27 05:45:52;;;;;;;6.82;1.13;;;;;;;;;;5011915;28;20040;-35
2022/01/27 05:48:19;;;;;;;4.13;0.80;;;;;;;;;;5011991;28;20025;-35
2022/01/27 05:50:46;;;;;;;5.80;1.13;;;;;;;;;;5011920;28;20054;-36
2022/01/27 05:53:13;;;;;;;11.82;1.25;;;;;;;;;;5011783;28;20036;-35
2022/01/27 05:55:40;;;;;;;7.90;1.02;;;;;;;;;;5011872;28;20488;-35
2022/01/27 05:58:07;;;;;;;5.47;0.93;;;;;;;;;;5011924;28;20058;-34
2022/01/27 06:00:35;;;;;;;5.53;1.25;;;;;;;;;;5011847;28;20102;-34
2022/01/27 06:03:02;;;;;;;5.80;1.30;;;;;;;;;;5011710;28;20041;-35
2022/01/27 06:05:29;;;;;;;4.47;0.90;;;;;;;;;;5011763;28;20033;-34
2022/01/27 06:07:56;;;;;;;10.05;1.70;;;;;;;;;;5011715;28;20025;-34
2022/01/27 06:10:23;;;;;;;5.57;0.98;;;;;;;;;;5011781;28;20372;-35
2022/01/27 06:12:51;;;;;;;5.97;1.13;;;;;;;;;;5011574;28;20034;-35
2022/01/27 06:15:19;;;;;;;6.75;1.45;;;;;;;;;;5011560;28;20078;-36
2022/01/27 06:17:46;;;;;;;6.90;1.35;;;;;;;;;;5011541;28;20030;-35
2022/01/27 06:20:13;;;;;;;7.07;1.42;;;;;;;;;;5011643;28;20041;-34
2022/01/27 06:22:41;;;;;;;3.67;1.08;;;;;;;;;;5011501;28;20041;-34
2022/01/27 06:25:08;;;;;;;9.73;1.38;;;;;;;;;;5011670;28;20476;-35
2022/01/27 06:27:36;;;;;;;8.07;1.30;;;;;;;;;;5011529;28;20049;-33
2022/01/27 06:30:05;;;;;;;10.27;1.52;;;;;;;;;;5011541;28;20091;-35
2022/01/27 06:32:32;;;;;;;9.32;1.33;;;;;;;;;;5010736;28;20057;-36
2022/01/27 06:35:03;;;;;;;8.45;1.65;;;;;;;;;;5011536;28;20451;-34
2022/01/27 06:37:31;;;;;;;3.47;1.20;;;;;;;;;;5011424;28;20041;-35
2022/01/27 06:39:58;;;;;;;5.13;0.90;;;;;;;;;;5011465;28;20026;-35
2022/01/27 06:42:25;;;;;;;7.25;1.02;;;;;;;;;;5011339;28;20059;-35
2022/01/27 06:44:52;;;;;;;5.50;1.20;;;;;;;;;;5014786;28;20056;-36
2022/01/27 06:47:19;;;;;;;5.05;1.08;;;;;;;;;;5014958;28;20038;-34
2022/01/27 06:49:46;;;;;;;5.00;1.00;;;;;;;;;;5014913;28;20080;-34
2022/01/27 06:52:13;;;;;;;9.07;1.40;;;;;;;;;;5014877;28;20519;-35
2022/01/27 06:54:40;;;;;;;5.20;1.10;;;;;;;;;;5014956;28;20022;-35
2022/01/27 06:57:07;;;;;;;7.72;1.30;;;;;;;;;;5014851;28;20030;-34
2022/01/27 06:59:35;;;;;;;7.10;1.20;;;;;;;;;;5013459;28;20026;-36
2022/01/27 07:02:02;;;;;;;7.00;1.08;;;;;;;;;;5014899;28;20108;-35
2022/01/27 07:04:29;;;;;;;5.43;1.10;;;;;;;;;;5014562;28;20451;-36
2022/01/27 07:06:56;;;;;;;6.05;1.10;;;;;;;;;;5014743;28;20041;-33
2022/01/27 07:09:23;;;;;;;6.07;1.10;;;;;;;;;;5014580;28;20057;-34
2022/01/27 07:11:50;;;;;;;7.97;1.17;;;;;;;;;;5014537;28;20048;-34
2022/01/27 07:14:18;;;;;;;7.80;1.20;;;;;;;;;;5014322;28;20088;-35
2022/01/27 07:16:45;;;;;;;7.50;1.25;;;;;;;;;;5014223;28;20062;-34
2022/01/27 07:19:12;;;;;;;6.03;1.20;;;;;;;;;;5014321;28;20033;-32
2022/01/27 07:21:39;;;;;;;8.32;1.10;;;;;;;;;;5014379;28;20079;-33
2022/01/27 07:24:06;;;;;;;10.60;1.60;;;;;;;;;;5014574;28;20388;-34
2022/01/27 07:26:33;;;;;;;13.75;1.70;;;;;;;;;;5014282;28;20384;-33
2022/01/27 07:29:01;;;;;;;7.32;1.30;;;;;;;;;;5014343;28;20078;-35
2022/01/27 07:31:28;;;;;;;7.90;1.50;;;;;;;;;;5014138;28;20037;-34
2022/01/27 07:33:55;;;;;;;8.30;1.50;;;;;;;;;;5013991;28;20036;-34
2022/01/27 07:36:22;;;;;;;8.15;1.35;;;;;;;;;;5014181;28;20133;-34
2022/01/27 07:38:50;;;;;;;14.75;1.90;;;;;;;;;;5014137;28;20392;-35
2022/01/27 07:41:18;;;;;;;10.18;1.55;;;;;;;;;;5014069;28;20564;-35
2022/01/27 07:43:45;;;;;;;8.40;1.60;;;;;;;;;;5013796;28;20038;-34
2022/01/27 07:46:13;;;;;;;10.85;1.52;;;;;;;;;;5013901;28;20025;-35
2022/01/27 07:48:40;;;;;;;9.90;1.52;;;;;;;;;;5013887;28;20033;-35
2022/01/27 07:51:08;;;;;;;7.97;1.58;;;;;;;;;;5013644;28;20030;-33
2022/01/27 07:53:38;;;;;;;4.43;1.15;;;;;;;;;;5014509;28;20022;-35
2022/01/27 07:56:30;;;;;;;8.02;1.23;;;;;;;;;;5014230;28;20530;-35
2022/01/27 08:02:13;;;;;;;5.20;1.10;;;;;;;;;;5014959;28;20064;-35
2022/01/27 08:07:57;;;;;;;7.95;1.30;;;;;;;;;;5015028;28;20161;-34
2022/01/27 08:13:39;;;;;;;8.07;1.30;;;;;;;;;;5014447;28;20558;-34
2022/01/27 08:19:22;;;;;;;5.25;1.10;;;;;;;;;;5014585;28;20068;-33
2022/01/27 08:21:49;;;;;;;5.88;1.00;;;;;;;;;;5178149;22;20054;-43
2022/01/27 08:24:18;;;;;;;7.53;1.40;;;;;;;;;;5032805;28;20087;-45
2022/01/27 08:26:47;;;;;;;6.45;1.50;;;;;;;;;;5032904;28;20045;-45
2022/01/27 08:29:30;;;;;;;7.57;1.42;;;;;;;;;;5032896;28;20041;-45
2022/01/27 08:32:06;;;;;;;4.47;1.20;;;;;;;;;;5032542;28;20516;-45
2022/01/27 08:34:36;;;;;;;6.75;1.33;;;;;;;;;;5032738;28;20041;-44
2022/01/27 08:37:04;;;;;;;5.35;1.20;;;;;;;;;;5032696;28;20112;-45
2022/01/27 08:39:31;;;;;;;7.10;1.35;;;;;;;;;;5032765;28;20026;-45
2022/01/27 08:41:59;;;;;;;8.95;1.77;;;;;;;;;;5032588;28;20055;-45
2022/01/27 08:44:26;;;;;;;7.15;1.50;;;;;;;;;;5032646;28;20517;-43
2022/01/27 08:46:53;;;;;;;6.25;1.27;;;;;;;;;;5032623;28;20083;-44
2022/01/27 08:49:23;;;;;;;6.30;1.30;;;;;;;;;;5032595;28;20057;-45
2022/01/27 08:51:50;;;;;;;6.47;1.27;;;;;;;;;;5032204;28;20044;-45
2022/01/27 08:54:17;;;;;;;13.40;1.50;;;;;;;;;;5032526;28;20029;-45
2022/01/27 08:56:44;;;;;;;6.72;1.48;;;;;;;;;;5032355;28;20366;-45
2022/01/27 08:59:11;;;;;;;17.35;2.63;;;;;;;;;;5032261;28;20045;-45
2022/01/27 09:01:40;;;;;;;12.90;2.80;;;;;;;;;;5032245;28;20026;-44
2022/01/27 09:04:08;;;;;;;11.48;2.17;;;;;;;;;;5032148;28;20455;-44
2022/01/27 09:06:35;;;;;;;7.18;1.75;;;;;;;;;;5032032;28;20068;-44
2022/01/27 09:09:03;;;;;;;18.15;2.75;;;;;;;;;;5014383;28;20423;-44
2022/01/27 09:11:33;;;;;;;15.68;2.20;;;;;;;;;;5032018;28;20025;-43
2022/01/27 09:14:01;;;;;;;12.13;1.55;;;;;;;;;;5032185;28;20037;-43
2022/01/27 09:16:29;;;;;;;20.50;1.95;;;;;;;;;;5032183;28;20025;-45
2022/01/27 09:18:58;;;;;;;13.13;2.20;;;;;;;;;;5031868;28;20065;-44
2022/01/27 09:21:26;;;;;;;14.95;1.65;;;;;;;;;;5031586;28;20124;-44
2022/01/27 09:23:54;;;;;;;10.68;1.70;;;;;;;;;;5031870;28;20037;-44
2022/01/27 09:26:50;;;;;;;21.98;2.80;;;;;;;;;;5032019;28;20036;-43
2022/01/27 09:29:09;;;;;;;25.92;2.65;;;;;;;;;;5031542;28;20128;-44
2022/01/27 09:31:37;;;;;;;20.27;2.40;;;;;;;;;;5013958;28;20048;-44
2022/01/27 09:34:04;;;;;;;44.15;3.92;;;;;;;;;;5031891;28;20037;-44
2022/01/27 09:36:31;;;;;;;32.80;2.80;;;;;;;;;;5031911;28;20028;-44
2022/01/27 09:38:59;;;;;;;50.40;3.40;;;;;;;;;;5031930;28;20049;-44
2022/01/27 09:41:27;;;;;;;14.98;1.90;;;;;;;;;;5031447;28;20029;-44
2022/01/27 09:43:55;;;;;;;14.95;1.90;;;;;;;;;;5031684;28;20479;-44
2022/01/27 09:46:24;;;;;;;14.63;2.25;;;;;;;;;;5031618;28;20061;-44
2022/01/27 09:48:52;;;;;;;18.23;2.20;;;;;;;;;;5031665;28;20112;-44
2022/01/27 09:53:47;;;;;;;19.08;2.35;;;;;;;;;;5031651;28;20037;-44
2022/01/27 09:56:14;;;;;;;31.52;3.13;;;;;;;;;;5031680;28;20160;-44
2022/01/27 09:58:41;;;;;;;48.28;4.70;;;;;;;;;;5031584;28;20068;-43
2022/01/27 10:01:08;;;;;;;47.88;4.85;;;;;;;;;;5031422;28;20040;-44
2022/01/27 10:03:52;;;;;;;35.72;3.90;;;;;;;;;;5031438;28;20557;-43
2022/01/27 10:06:19;;;;;;;31.60;3.15;;;;;;;;;;5031571;28;20116;-44
2022/01/27 10:08:46;;;;;;;24.20;3.15;;;;;;;;;;5031591;28;20113;-44
2022/01/27 10:11:17;;;;;;;40.35;3.58;;;;;;;;;;5031401;28;20026;-43
2022/01/27 10:13:46;;;;;;;51.67;5.03;;;;;;;;;;5031532;28;20571;-44
2022/01/27 10:16:35;;;;;;;44.60;4.53;;;;;;;;;;5031328;28;20037;-43
2022/01/27 10:19:08;;;;;;;31.58;4.10;;;;;;;;;;5033662;28;20552;-43
2022/01/27 10:21:36;;;;;;;40.47;4.07;;;;;;;;;;5034930;28;20041;-43
2022/01/27 10:24:30;;;;;;;37.67;3.75;;;;;;;;;;5035198;28;20459;-43
2022/01/27 10:27:32;;;;;;;41.40;4.03;;;;;;;;;;5032185;28;20041;-43
2022/01/27 10:32:38;;;;;;;29.77;3.15;;;;;;;;;;5035308;28;20046;-44
2022/01/27 10:35:05;;;;;;;19.83;2.72;;;;;;;;;;5017314;28;20025;-44
2022/01/27 10:37:55;;;;;;;24.30;3.20;;;;;;;;;;5035065;28;20025;-43
2022/01/27 10:40:23;;;;;;;28.48;3.60;;;;;;;;;;5024942;28;20029;-44
2022/01/27 10:43:01;;;;;;;18.50;2.38;;;;;;;;;;5034956;28;20030;-43
2022/01/27 10:45:29;;;;;;;12.48;1.95;;;;;;;;;;5034926;28;20022;-43
2022/01/27 10:48:24;;;;;;;13.50;2.55;;;;;;;;;;5034725;28;20483;-43
2022/01/27 10:51:16;;;;;;;21.42;2.97;;;;;;;;;;5034488;28;20038;-44
2022/01/27 10:53:56;;;;;;;18.48;2.50;;;;;;;;;;5034321;28;20049;-44
2022/01/27 10:56:24;;;;;;;31.02;3.25;;;;;;;;;;5034602;28;20033;-44
2022/01/27 10:58:51;;;;;;;31.52;3.25;;;;;;;;;;5034529;28;20476;-44
2022/01/27 11:01:22;;;;;;;23.92;2.70;;;;;;;;;;5034475;28;20509;-43
2022/01/27 11:03:53;;;;;;;21.02;2.65;;;;;;;;;;5034623;28;20034;-44
2022/01/27 11:06:24;;;;;;;31.33;2.93;;;;;;;;;;5034579;28;20025;-43
2022/01/27 11:08:54;;;;;;;30.02;4.32;;;;;;;;;;5034321;28;20423;-44
2022/01/27 11:11:25;;;;;;;35.72;4.18;;;;;;;;;;5034034;28;20482;-44
2022/01/27 11:13:53;;;;;;;45.60;5.37;;;;;;;;;;5034410;28;20048;-43
2022/01/27 11:16:29;;;;;;;36.42;4.70;;;;;;;;;;5034386;28;20497;-45
2022/01/27 11:19:12;;;;;;;34.08;3.65;;;;;;;;;;5034116;28;20391;-44
2022/01/27 11:21:41;;;;;;;27.27;4.00;;;;;;;;;;5033750;28;20045;-44
2022/01/27 11:24:16;;;;;;;23.33;3.38;;;;;;;;;;5034328;28;20398;-44
2022/01/27 11:26:44;;;;;;;21.67;2.97;;;;;;;;;;5034010;28;20033;-44
2022/01/27 11:29:13;;;;;;;14.05;2.65;;;;;;;;;;5029196;28;20030;-44
2022/01/27 11:31:58;;;;;;;23.25;2.50;;;;;;;;;;5016041;28;20038;-42
2022/01/27 11:34:43;;;;;;;21.38;2.63;;;;;;;;;;5029808;28;20029;-42
2022/01/27 11:37:11;;;;;;;23.48;3.50;;;;;;;;;;5033740;28;20563;-42
2022/01/27 11:39:51;;;;;;;30.67;3.00;;;;;;;;;;5033806;28;20033;-42
2022/01/27 11:42:22;;;;;;;17.38;2.35;;;;;;;;;;5033920;28;20029;-42
2022/01/27 11:44:49;;;;;;;25.30;2.67;;;;;;;;;;5029401;28;20025;-43
2022/01/27 11:47:18;;;;;;;28.27;3.15;;;;;;;;;;5014057;28;20029;-44
2022/01/27 11:49:59;;;;;;;23.02;3.08;;;;;;;;;;5023707;28;20049;-42
2022/01/27 11:52:28;;;;;;;29.30;3.72;;;;;;;;;;5033399;28;20042;-42
2022/01/27 11:54:56;;;;;;;29.10;3.53;;;;;;;;;;5032921;28;20064;-42
2022/01/27 11:57:42;;;;;;;21.08;2.58;;;;;;;;;;5033565;28;20048;-42
2022/01/27 12:00:10;;;;;;;25.25;3.38;;;;;;;;;;5033404;28;20075;-42
2022/01/27 12:03:16;;;;;;;11.07;2.40;;;;;;;;;;5033443;28;20025;-42
2022/01/27 12:05:46;;;;;;;14.80;1.90;;;;;;;;;;4972403;28;20050;-42
2022/01/27 12:08:15;;;;;;;9.10;1.65;;;;;;;;;;4962918;28;20505;-42
2022/01/27 12:10:55;;;;;;;15.88;2.13;;;;;;;;;;4992920;28;20052;-42
2022/01/27 12:13:34;;;;;;;16.02;2.15;;;;;;;;;;5020649;28;20049;-42
2022/01/27 12:19:01;;;;;;;18.20;2.17;;;;;;;;;;5024297;28;20500;-42
2022/01/27 12:21:32;;;;;;;15.35;1.90;;;;;;;;;;5020959;28;20494;-42
2022/01/27 12:24:20;;;;;;;12.23;2.55;;;;;;;;;;5021977;28;20096;-42
2022/01/27 12:26:47;;;;;;;28.92;3.05;;;;;;;;;;5023006;28;20038;-42
2022/01/27 12:29:34;;;;;;;19.63;3.10;;;;;;;;;;5021810;28;20060;-42
2022/01/27 12:32:05;;;;;;;18.75;2.78;;;;;;;;;;5020545;28;20033;-42
2022/01/27 12:34:33;;;;;;;20.90;3.50;;;;;;;;;;5013008;28;20033;-42
2022/01/27 12:37:00;;;;;;;27.02;3.30;;;;;;;;;;5013097;28;20029;-42
2022/01/27 12:39:28;;;;;;;27.98;4.05;;;;;;;;;;5017744;28;20120;-43
2022/01/27 12:41:55;;;;;;;25.55;2.67;;;;;;;;;;5019932;28;20430;-42
2022/01/27 12:44:25;;;;;;;15.60;2.55;;;;;;;;;;5021346;28;20754;-42
2022/01/27 12:47:11;;;;;;;28.48;3.50;;;;;;;;;;5021021;28;20064;-43
2022/01/27 12:49:41;;;;;;;24.45;3.25;;;;;;;;;;5022708;28;20033;-43
2022/01/27 12:52:11;;;;;;;18.35;2.67;;;;;;;;;;5022039;28;20042;-43
2022/01/27 12:54:39;;;;;;;27.23;3.10;;;;;;;;;;5020959;28;20029;-44
2022/01/27 12:57:06;;;;;;;19.90;2.85;;;;;;;;;;5022114;28;20545;-43
2022/01/27 12:59:39;;;;;;;14.43;2.33;;;;;;;;;;5022890;28;20040;-43
2022/01/27 13:02:05;;;;;;;;;;;;;;;;;;5007332;28;20037;-43
2022/01/27 13:04:33;;;;;;;20.00;2.65;;;;;;;;;;5028739;28;19913;-42
2022/01/27 13:07:00;;;;;;;19.48;3.47;;;;;;;;;;5012876;28;20030;-42
2022/01/27 13:09:28;;;;;;;14.35;2.50;;;;;;;;;;5014637;28;20713;-42
2022/01/27 13:11:57;;;;;;;17.83;2.45;;;;;;;;;;5029619;28;20042;-42
2022/01/27 13:14:25;;;;;;;12.27;1.70;;;;;;;;;;5032008;28;20056;-42
2022/01/27 13:16:59;;;;;;;12.00;2.17;;;;;;;;;;5031971;28;20068;-42
2022/01/27 13:19:43;;;;;;;8.50;1.80;;;;;;;;;;5032214;28;20437;-42
2022/01/27 13:22:16;;;;;;;7.35;1.70;;;;;;;;;;5031617;28;20048;-42
2022/01/27 13:24:51;;;;;;;7.55;1.50;;;;;;;;;;5031774;28;20034;-42
2022/01/27 13:27:18;;;;;;;10.88;1.65;;;;;;;;;;5031856;28;20037;-42
2022/01/27 13:29:49;;;;;;;7.60;1.27;;;;;;;;;;5031910;28;20466;-42
2022/01/27 13:32:16;;;;;;;8.15;2.00;;;;;;;;;;5029909;28;20552;-42
2022/01/27 13:34:52;;;;;;;6.65;1.42;;;;;;;;;;5025081;28;20132;-42
2022/01/27 13:37:33;;;;;;;7.78;1.63;;;;;;;;;;5031946;28;20105;-42
2022/01/27 13:42:52;;;;;;;10.75;1.80;;;;;;;;;;5028885;28;20043;-42
2022/01/27 13:45:19;;;;;;;18.83;1.90;;;;;;;;;;5014461;28;20022;-43
2022/01/27 13:47:46;;;;;;;10.45;1.95;;;;;;;;;;5018847;28;20025;-42
2022/01/27 13:50:15;;;;;;;8.98;1.55;;;;;;;;;;5019596;28;20091;-41
2022/01/27 13:52:43;;;;;;;12.15;1.30;;;;;;;;;;5026172;28;20141;-41
2022/01/27 13:55:12;;;;;;;7.30;1.35;;;;;;;;;;5016796;28;20030;-41
2022/01/27 13:57:51;;;;;;;8.57;1.30;;;;;;;;;;5024189;28;20088;-41
2022/01/27 14:00:24;;;;;;;8.50;1.27;;;;;;;;;;5026443;28;20049;-41
2022/01/27 14:02:53;;;;;;;7.82;1.55;;;;;;;;;;5031466;28;20045;-41
2022/01/27 14:05:21;;;;;;;9.93;1.15;;;;;;;;;;5017443;28;20092;-42
2022/01/27 14:07:48;;;;;;;5.25;1.00;;;;;;;;;;5031229;28;20116;-41
2022/01/27 14:10:21;;;;;;;9.27;1.30;;;;;;;;;;5025836;28;20108;-41
2022/01/27 14:12:48;;;;;;;6.10;1.48;;;;;;;;;;5028237;28;20042;-41
2022/01/27 14:15:34;;;;;;;7.95;1.50;;;;;;;;;;5016391;28;20041;-41
2022/01/27 14:18:09;;;;;;;5.03;1.00;;;;;;;;;;5029851;28;20144;-41
2022/01/27 14:20:37;;;;;;;8.30;1.33;;;;;;;;;;5032823;28;20038;-41
2022/01/27 14:23:14;;;;;;;10.20;1.30;;;;;;;;;;5029902;28;20052;-41
2022/01/27 14:25:50;;;;;;;9.93;1.50;;;;;;;;;;5033553;28;20459;-42
2022/01/27 14:28:17;;;;;;;6.22;1.20;;;;;;;;;;5032316;28;20372;-41
2022/01/27 14:30:44;;;;;;;7.78;1.42;;;;;;;;;;5026091;28;20041;-42
2022/01/27 14:33:11;;;;;;;7.32;1.05;;;;;;;;;;5033096;28;20041;-41
2022/01/27 14:35:38;;;;;;;15.35;1.95;;;;;;;;;;5032459;28;20443;-41
2022/01/27 14:38:05;;;;;;;10.65;1.42;;;;;;;;;;5031673;28;20087;-41
2022/01/27 14:40:33;;;;;;;16.48;2.15;;;;;;;;;;5032239;28;20018;-41
2022/01/27 14:43:02;;;;;;;18.00;1.45;;;;;;;;;;5032181;28;20034;-42
2022/01/27 14:45:30;;;;;;;9.68;1.40;;;;;;;;;;5032702;28;20061;-41
2022/01/27 14:48:04;;;;;;;9.02;1.23;;;;;;;;;;5032597;28;20493;-41
2022/01/27 14:50:37;;;;;;;7.25;1.63;;;;;;;;;;5032006;28;20037;-42
2022/01/27 14:53:05;;;;;;;9.10;1.05;;;;;;;;;;5031745;28;20506;-42
2022/01/27 14:55:32;;;;;;;9.82;1.40;;;;;;;;;;5031671;28;20164;-42
2022/01/27 14:57:59;;;;;;;7.18;1.27;;;;;;;;;;5030069;28;20083;-42
2022/01/27 15:00:27;;;;;;;8.73;1.13;;;;;;;;;;5031653;28;20033;-42
2022/01/27 15:02:55;;;;;;;12.77;1.35;;;;;;;;;;5030020;28;20110;-42
2022/01/27 15:05:22;;;;;;;7.30;1.15;;;;;;;;;;5031890;28;20025;-41
2022/01/27 15:07:50;;;;;;;14.68;1.30;;;;;;;;;;5031179;28;20028;-42
2022/01/27 15:10:20;;;;;;;8.07;1.20;;;;;;;;;;5031776;28;20064;-41
2022/01/27 15:12:47;;;;;;;18.40;1.40;;;;;;;;;;5028240;28;20045;-42
2022/01/27 15:20:45;;;;;;;12.10;1.90;;;;;;;;;;5031663;28;20168;-41
2022/01/27 15:23:16;;;;;;;14.82;2.17;;;;;;;;;;5029403;28;20048;-42
2022/01/27 15:25:44;;;;;;;22.52;1.88;;;;;;;;;;5031967;28;20045;-43
2022/01/27 15:28:11;;;;;;;14.95;1.52;;;;;;;;;;5029928;28;20200;-41
2022/01/27 15:30:39;;;;;;;12.02;2.22;;;;;;;;;;5028008;28;22193;-42
2022/01/27 15:33:08;;;;;;;9.45;1.63;;;;;;;;;;5025465;28;20118;-42
2022/01/27 15:35:35;;;;;;;12.07;1.60;;;;;;;;;;5021826;28;20092;-43
2022/01/27 15:38:03;;;;;;;15.40;1.58;;;;;;;;;;5030942;28;20116;-43
2022/01/27 15:40:32;;;;;;;23.33;2.33;;;;;;;;;;5033027;28;20029;-42
2022/01/27 15:43:01;;;;;;;30.23;2.60;;;;;;;;;;5014433;28;20454;-42
2022/01/27 15:45:29;;;;;;;22.92;2.67;;;;;;;;;;5031874;28;20045;-42
2022/01/27 15:47:57;;;;;;;33.63;2.83;;;;;;;;;;5029054;28;20052;-42
2022/01/27 15:50:24;;;;;;;37.00;2.90;;;;;;;;;;5031963;28;20034;-42
2022/01/27 15:52:52;;;;;;;20.90;2.10;;;;;;;;;;5031211;28;20088;-41
2022/01/27 15:55:20;;;;;;;15.95;1.88;;;;;;;;;;5030731;28;20026;-42
2022/01/27 15:57:48;;;;;;;22.92;2.03;;;;;;;;;;5030891;28;20026;-42
2022/01/27 16:00:16;;;;;;;16.15;2.08;;;;;;;;;;5028499;28;20099;-42
2022/01/27 16:02:47;;;;;;;17.98;2.10;;;;;;;;;;5029594;28;20061;-42
2022/01/27 16:05:18;;;;;;;7.88;1.70;;;;;;;;;;5029887;28;20087;-42
2022/01/27 16:07:47;;;;;;;16.00;1.60;;;;;;;;;;5028190;28;20033;-42
2022/01/27 16:10:15;;;;;;;10.10;1.02;;;;;;;;;;5025686;28;20514;-42
2022/01/27 16:12:43;;;;;;;7.68;1.42;;;;;;;;;;5029600;28;20462;-43
2022/01/27 16:15:11;;;;;;;11.43;1.50;;;;;;;;;;5011028;28;20029;-42